Cuneyt Solakoglu — TCTN4 — position and weather

sailwx.info

Track history (hours):
 
Tides and Currents Weather Stations Pressure Air Temp Water Temp Dewpoint Dewpoint Depression Visibility Wind Speed Wind Dir Waves Ship Positions

Cuneyt Solakoglu

Last reported at 2015-May-22 08:33 UTC. Time now 2015-May-23 07:17 UTC.
Position N 39°50' E 018°57'.

Length 193 m; draft 5.7 m.

Type: Ship (hazmat cat A). MMSI: 271002676.

Date/timePositionNaut miles runAvg speedWind from/ knotsBaromVisibWave heightAir tempDewpointWater temp
2015-May-22 08:33N 39°50' E 018°57'2020.2
2015-May-22 07:33N 39°33' E 019°10'2020.4
2015-May-22 06:33N 39°15' E 019°24'2020.4
2015-May-22 05:33N 38°58' E 019°37'22717.3
2015-May-21 16:29N 36°36' E 023°21'2119.7
2015-May-21 15:26N 36°53' E 023°34'4219.9
2015-May-21 13:21N 37°28' E 024°03'176 5.0
2015-May-20 02:14N 39°58' E 025°60'14420.2
2015-May-19 19:06N 37°51' E 024°32'1219.8
2015-May-19 18:29N 37°44' E 024°20'2120.6
2015-May-19 17:28N 37°27' E 024°04'1920.3
2015-May-19 16:33N 37°12' E 023°51'2020.5
2015-May-19 15:34N 36°55' E 023°37'2220.4
2015-May-19 14:27N 36°36' E 023°22'23017.8
2015-May-19 01:33N 38°59' E 019°34'2520.2
2015-May-19 00:18N 39°20' E 019°17'1520.4
2015-May-18 23:33N 39°33' E 019°07'2020.6
2015-May-18 22:33N 39°51' E 018°53'2120.6
2015-May-18 21:33N 40°08' E 018°40'2520.7
2015-May-18 20:20N 40°30' E 018°22'  
2015-May-16 09:32N 39°52' E 018°56'1919.1
2015-May-16 08:33N 39°36' E 019°08'2419.0
2015-May-16 07:16N 39°15' E 019°24'1419.0
2015-May-16 06:33N 39°03' E 019°33'3919.5
2015-May-16 04:33N 38°30' E 019°58'1919.3
2015-May-16 03:33N 38°13' E 020°11'2419.6
2015-May-16 02:19N 37°54' E 020°29'15317.5
2015-May-15 17:32N 36°25' E 023°06'1817.3
2015-May-15 16:29N 36°37' E 023°22'1819.1
2015-May-15 15:33N 36°52' E 023°34'1919.0
2015-May-15 14:33N 37°09' E 023°46'1919.3
2015-May-15 13:33N 37°25' E 023°59'2319.4
2015-May-15 12:22N 37°44' E 024°16'  
2015-May-12 23:06N 38°29' E 024°59'3617.6
2015-May-12 21:05N 37°57' E 024°39'1016.9
2015-May-12 20:28N 37°47' E 024°33'  
Track history (hours):
 
Tides and Currents Weather Stations Pressure Air Temp Water Temp Dewpoint Dewpoint Depression Visibility Wind Speed Wind Dir Waves Ship Positions

Cuneyt Solakoglu

Last reported at 2015-May-22 08:33 UTC. Time now 2015-May-23 07:17 UTC.
Position N 39°50' E 018°57'.

Length 193 m; draft 5.7 m.

Type: Ship (hazmat cat A). MMSI: 271002676.

Date/timePositionNaut miles runAvg speedWind from/ knotsBaromVisibWave heightAir tempDewpointWater temp
2015-May-22 08:33N 39°50' E 018°57'2020.2
2015-May-22 07:33N 39°33' E 019°10'2020.4
2015-May-22 06:33N 39°15' E 019°24'2020.4
2015-May-22 05:33N 38°58' E 019°37'22717.3
2015-May-21 16:29N 36°36' E 023°21'2119.7
2015-May-21 15:26N 36°53' E 023°34'4219.9
2015-May-21 13:21N 37°28' E 024°03'176 5.0
2015-May-20 02:14N 39°58' E 025°60'14420.2
2015-May-19 19:06N 37°51' E 024°32'1219.8
2015-May-19 18:29N 37°44' E 024°20'2120.6
2015-May-19 17:28N 37°27' E 024°04'1920.3
2015-May-19 16:33N 37°12' E 023°51'2020.5
2015-May-19 15:34N 36°55' E 023°37'2220.4
2015-May-19 14:27N 36°36' E 023°22'23017.8
2015-May-19 01:33N 38°59' E 019°34'2520.2
2015-May-19 00:18N 39°20' E 019°17'1520.4
2015-May-18 23:33N 39°33' E 019°07'2020.6
2015-May-18 22:33N 39°51' E 018°53'2120.6
2015-May-18 21:33N 40°08' E 018°40'2520.7
2015-May-18 20:20N 40°30' E 018°22'  
2015-May-16 09:32N 39°52' E 018°56'1919.1
2015-May-16 08:33N 39°36' E 019°08'2419.0
2015-May-16 07:16N 39°15' E 019°24'1419.0
2015-May-16 06:33N 39°03' E 019°33'3919.5
2015-May-16 04:33N 38°30' E 019°58'1919.3
2015-May-16 03:33N 38°13' E 020°11'2419.6
2015-May-16 02:19N 37°54' E 020°29'15317.5
2015-May-15 17:32N 36°25' E 023°06'1817.3
2015-May-15 16:29N 36°37' E 023°22'1819.1
2015-May-15 15:33N 36°52' E 023°34'1919.0
2015-May-15 14:33N 37°09' E 023°46'1919.3
2015-May-15 13:33N 37°25' E 023°59'2319.4
2015-May-15 12:22N 37°44' E 024°16'  
2015-May-12 23:06N 38°29' E 024°59'3617.6
2015-May-12 21:05N 37°57' E 024°39'1016.9
2015-May-12 20:28N 37°47' E 024°33'  

Dump ship's entire track history